sensor_id;sensor_type;location;lat;lon;timestamp;P1;durP1;ratioP1;P2;durP2;ratioP2
14235;SDS011;7202;50.718;7.072;2023-12-07T00:01:29;17.25;;;11.07;;
14235;SDS011;7202;50.718;7.072;2023-12-07T00:03:58;14.98;;;10.50;;
14235;SDS011;7202;50.718;7.072;2023-12-07T00:06:26;12.95;;;9.68;;
14235;SDS011;7202;50.718;7.072;2023-12-07T00:08:56;16.80;;;10.85;;
14235;SDS011;7202;50.718;7.072;2023-12-07T00:11:25;17.20;;;10.40;;
14235;SDS011;7202;50.718;7.072;2023-12-07T00:13:53;15.18;;;10.65;;
14235;SDS011;7202;50.718;7.072;2023-12-07T00:16:22;14.70;;;10.38;;
14235;SDS011;7202;50.718;7.072;2023-12-07T00:18:51;14.25;;;9.98;;
14235;SDS011;7202;50.718;7.072;2023-12-07T00:21:20;14.27;;;11.05;;
14235;SDS011;7202;50.718;7.072;2023-12-07T00:23:48;14.85;;;10.60;;
14235;SDS011;7202;50.718;7.072;2023-12-07T00:26:18;14.77;;;11.07;;
14235;SDS011;7202;50.718;7.072;2023-12-07T00:28:47;19.50;;;12.68;;
14235;SDS011;7202;50.718;7.072;2023-12-07T00:31:15;14.02;;;9.90;;
14235;SDS011;7202;50.718;7.072;2023-12-07T00:33:44;13.10;;;9.40;;
14235;SDS011;7202;50.718;7.072;2023-12-07T00:36:13;12.95;;;9.63;;
14235;SDS011;7202;50.718;7.072;2023-12-07T00:38:41;16.13;;;9.32;;
14235;SDS011;7202;50.718;7.072;2023-12-07T00:41:10;15.43;;;10.40;;
14235;SDS011;7202;50.718;7.072;2023-12-07T00:43:39;14.45;;;9.77;;
14235;SDS011;7202;50.718;7.072;2023-12-07T00:46:08;13.63;;;9.85;;
14235;SDS011;7202;50.718;7.072;2023-12-07T00:48:37;16.23;;;10.27;;
14235;SDS011;7202;50.718;7.072;2023-12-07T00:51:06;13.30;;;10.25;;
14235;SDS011;7202;50.718;7.072;2023-12-07T00:53:34;13.90;;;10.77;;
14235;SDS011;7202;50.718;7.072;2023-12-07T00:56:03;15.50;;;10.77;;
14235;SDS011;7202;50.718;7.072;2023-12-07T00:58:32;15.50;;;10.60;;
14235;SDS011;7202;50.718;7.072;2023-12-07T01:01:07;13.10;;;10.02;;
14235;SDS011;7202;50.718;7.072;2023-12-07T01:03:36;17.15;;;10.15;;
14235;SDS011;7202;50.718;7.072;2023-12-07T01:06:07;17.55;;;11.38;;
14235;SDS011;7202;50.718;7.072;2023-12-07T01:08:38;13.88;;;10.32;;
14235;SDS011;7202;50.718;7.072;2023-12-07T01:11:06;12.95;;;9.68;;
14235;SDS011;7202;50.718;7.072;2023-12-07T01:13:35;18.80;;;9.70;;
14235;SDS011;7202;50.718;7.072;2023-12-07T01:16:04;15.45;;;10.40;;
14235;SDS011;7202;50.718;7.072;2023-12-07T01:18:34;16.85;;;10.50;;
14235;SDS011;7202;50.718;7.072;2023-12-07T01:21:04;13.73;;;9.63;;
14235;SDS011;7202;50.718;7.072;2023-12-07T01:23:32;12.90;;;9.80;;
14235;SDS011;7202;50.718;7.072;2023-12-07T01:26:01;12.32;;;9.68;;
14235;SDS011;7202;50.718;7.072;2023-12-07T01:28:30;12.63;;;9.20;;
14235;SDS011;7202;50.718;7.072;2023-12-07T01:30:59;14.35;;;10.05;;
14235;SDS011;7202;50.718;7.072;2023-12-07T01:33:29;14.43;;;9.35;;
14235;SDS011;7202;50.718;7.072;2023-12-07T01:35:58;14.43;;;9.77;;
14235;SDS011;7202;50.718;7.072;2023-12-07T01:38:26;12.57;;;9.48;;
14235;SDS011;7202;50.718;7.072;2023-12-07T01:40:55;12.70;;;9.82;;
14235;SDS011;7202;50.718;7.072;2023-12-07T01:43:23;12.10;;;8.90;;
14235;SDS011;7202;50.718;7.072;2023-12-07T01:45:52;13.52;;;9.57;;
14235;SDS011;7202;50.718;7.072;2023-12-07T01:48:23;12.98;;;9.77;;
14235;SDS011;7202;50.718;7.072;2023-12-07T01:50:55;12.68;;;9.40;;
14235;SDS011;7202;50.718;7.072;2023-12-07T01:53:26;12.88;;;9.27;;
14235;SDS011;7202;50.718;7.072;2023-12-07T01:55:55;11.95;;;8.88;;
14235;SDS011;7202;50.718;7.072;2023-12-07T01:58:25;13.18;;;9.27;;
14235;SDS011;7202;50.718;7.072;2023-12-07T02:00:54;13.57;;;9.68;;
14235;SDS011;7202;50.718;7.072;2023-12-07T02:03:23;10.63;;;8.68;;
14235;SDS011;7202;50.718;7.072;2023-12-07T02:05:52;13.60;;;9.13;;
14235;SDS011;7202;50.718;7.072;2023-12-07T02:08:23;14.38;;;8.95;;
14235;SDS011;7202;50.718;7.072;2023-12-07T02:10:52;13.32;;;9.80;;
14235;SDS011;7202;50.718;7.072;2023-12-07T02:13:21;13.50;;;9.15;;
14235;SDS011;7202;50.718;7.072;2023-12-07T02:15:50;11.70;;;9.05;;
14235;SDS011;7202;50.718;7.072;2023-12-07T02:18:20;12.95;;;8.90;;
14235;SDS011;7202;50.718;7.072;2023-12-07T02:20:54;12.85;;;9.23;;
14235;SDS011;7202;50.718;7.072;2023-12-07T02:23:28;12.80;;;8.52;;
14235;SDS011;7202;50.718;7.072;2023-12-07T02:26:28;15.43;;;8.73;;
14235;SDS011;7202;50.718;7.072;2023-12-07T02:29:13;11.32;;;7.95;;
14235;SDS011;7202;50.718;7.072;2023-12-07T02:31:42;14.82;;;9.18;;
14235;SDS011;7202;50.718;7.072;2023-12-07T02:34:10;13.57;;;8.63;;
14235;SDS011;7202;50.718;7.072;2023-12-07T02:36:39;11.52;;;8.45;;
14235;SDS011;7202;50.718;7.072;2023-12-07T02:39:11;10.45;;;8.00;;
14235;SDS011;7202;50.718;7.072;2023-12-07T02:41:41;11.55;;;8.80;;
14235;SDS011;7202;50.718;7.072;2023-12-07T02:44:14;13.30;;;8.63;;
14235;SDS011;7202;50.718;7.072;2023-12-07T02:46:42;11.20;;;8.70;;
14235;SDS011;7202;50.718;7.072;2023-12-07T02:49:13;13.52;;;8.13;;
14235;SDS011;7202;50.718;7.072;2023-12-07T02:51:41;14.60;;;9.15;;
14235;SDS011;7202;50.718;7.072;2023-12-07T02:54:10;13.15;;;8.20;;
14235;SDS011;7202;50.718;7.072;2023-12-07T02:56:38;12.70;;;8.45;;
14235;SDS011;7202;50.718;7.072;2023-12-07T02:59:08;12.20;;;8.15;;
14235;SDS011;7202;50.718;7.072;2023-12-07T03:01:37;13.63;;;8.32;;
14235;SDS011;7202;50.718;7.072;2023-12-07T03:04:05;11.52;;;8.27;;
14235;SDS011;7202;50.718;7.072;2023-12-07T03:06:34;14.43;;;8.93;;
14235;SDS011;7202;50.718;7.072;2023-12-07T03:09:03;12.43;;;8.48;;
14235;SDS011;7202;50.718;7.072;2023-12-07T03:11:31;12.55;;;9.25;;
14235;SDS011;7202;50.718;7.072;2023-12-07T03:13:59;12.85;;;8.50;;
14235;SDS011;7202;50.718;7.072;2023-12-07T03:16:29;12.10;;;8.10;;
14235;SDS011;7202;50.718;7.072;2023-12-07T03:19:00;12.05;;;8.52;;
14235;SDS011;7202;50.718;7.072;2023-12-07T03:21:29;11.48;;;8.15;;
14235;SDS011;7202;50.718;7.072;2023-12-07T03:23:57;12.35;;;8.65;;
14235;SDS011;7202;50.718;7.072;2023-12-07T03:26:26;12.38;;;8.27;;
14235;SDS011;7202;50.718;7.072;2023-12-07T03:28:55;12.40;;;8.52;;
14235;SDS011;7202;50.718;7.072;2023-12-07T03:31:23;13.73;;;8.80;;
14235;SDS011;7202;50.718;7.072;2023-12-07T03:33:53;11.38;;;7.97;;
14235;SDS011;7202;50.718;7.072;2023-12-07T03:36:23;11.88;;;8.05;;
14235;SDS011;7202;50.718;7.072;2023-12-07T03:38:51;10.88;;;8.40;;
14235;SDS011;7202;50.718;7.072;2023-12-07T03:41:20;11.80;;;8.10;;
14235;SDS011;7202;50.718;7.072;2023-12-07T03:43:48;11.43;;;7.93;;
14235;SDS011;7202;50.718;7.072;2023-12-07T03:46:17;18.55;;;9.10;;
14235;SDS011;7202;50.718;7.072;2023-12-07T03:48:45;11.05;;;7.82;;
14235;SDS011;7202;50.718;7.072;2023-12-07T03:51:15;12.77;;;8.88;;
14235;SDS011;7202;50.718;7.072;2023-12-07T03:53:44;16.42;;;9.48;;
14235;SDS011;7202;50.718;7.072;2023-12-07T03:56:21;11.90;;;7.88;;
14235;SDS011;7202;50.718;7.072;2023-12-07T03:58:50;12.57;;;8.32;;
14235;SDS011;7202;50.718;7.072;2023-12-07T04:01:21;14.63;;;9.45;;
14235;SDS011;7202;50.718;7.072;2023-12-07T04:03:50;13.93;;;9.05;;
14235;SDS011;7202;50.718;7.072;2023-12-07T04:06:21;14.88;;;8.75;;
14235;SDS011;7202;50.718;7.072;2023-12-07T04:08:49;13.27;;;8.98;;
14235;SDS011;7202;50.718;7.072;2023-12-07T04:11:18;13.77;;;9.10;;
14235;SDS011;7202;50.718;7.072;2023-12-07T04:13:47;13.50;;;9.05;;
14235;SDS011;7202;50.718;7.072;2023-12-07T04:16:15;14.63;;;9.68;;
14235;SDS011;7202;50.718;7.072;2023-12-07T04:18:44;14.15;;;10.48;;
14235;SDS011;7202;50.718;7.072;2023-12-07T04:21:13;12.98;;;9.52;;
14235;SDS011;7202;50.718;7.072;2023-12-07T04:23:42;15.23;;;10.65;;
14235;SDS011;7202;50.718;7.072;2023-12-07T04:26:11;15.05;;;9.85;;
14235;SDS011;7202;50.718;7.072;2023-12-07T04:28:39;15.32;;;10.32;;
14235;SDS011;7202;50.718;7.072;2023-12-07T04:31:08;15.95;;;11.40;;
14235;SDS011;7202;50.718;7.072;2023-12-07T04:33:36;14.68;;;10.48;;
14235;SDS011;7202;50.718;7.072;2023-12-07T04:36:06;15.50;;;11.00;;
14235;SDS011;7202;50.718;7.072;2023-12-07T04:38:34;15.50;;;10.65;;
14235;SDS011;7202;50.718;7.072;2023-12-07T04:41:04;16.08;;;11.13;;
14235;SDS011;7202;50.718;7.072;2023-12-07T04:43:33;15.15;;;10.65;;
14235;SDS011;7202;50.718;7.072;2023-12-07T04:46:01;13.73;;;9.65;;
14235;SDS011;7202;50.718;7.072;2023-12-07T04:48:30;14.52;;;10.30;;
14235;SDS011;7202;50.718;7.072;2023-12-07T04:50:59;15.15;;;10.30;;
14235;SDS011;7202;50.718;7.072;2023-12-07T04:53:27;15.07;;;10.18;;
14235;SDS011;7202;50.718;7.072;2023-12-07T04:55:56;14.38;;;10.13;;
14235;SDS011;7202;50.718;7.072;2023-12-07T04:58:26;15.07;;;10.18;;
14235;SDS011;7202;50.718;7.072;2023-12-07T05:00:54;14.70;;;10.82;;
14235;SDS011;7202;50.718;7.072;2023-12-07T05:03:23;16.52;;;11.57;;
14235;SDS011;7202;50.718;7.072;2023-12-07T05:05:52;13.60;;;10.05;;
14235;SDS011;7202;50.718;7.072;2023-12-07T05:08:20;13.90;;;10.15;;
14235;SDS011;7202;50.718;7.072;2023-12-07T05:10:49;14.50;;;10.07;;
14235;SDS011;7202;50.718;7.072;2023-12-07T05:13:18;15.55;;;10.57;;
14235;SDS011;7202;50.718;7.072;2023-12-07T05:15:48;15.80;;;10.98;;
14235;SDS011;7202;50.718;7.072;2023-12-07T05:18:16;14.95;;;10.55;;
14235;SDS011;7202;50.718;7.072;2023-12-07T05:20:45;15.32;;;10.30;;
14235;SDS011;7202;50.718;7.072;2023-12-07T05:23:14;15.65;;;10.57;;
14235;SDS011;7202;50.718;7.072;2023-12-07T05:25:42;17.05;;;11.57;;
14235;SDS011;7202;50.718;7.072;2023-12-07T05:28:11;14.93;;;10.13;;
14235;SDS011;7202;50.718;7.072;2023-12-07T05:30:40;15.98;;;10.60;;
14235;SDS011;7202;50.718;7.072;2023-12-07T05:33:12;14.68;;;10.20;;
14235;SDS011;7202;50.718;7.072;2023-12-07T05:35:41;14.80;;;10.18;;
14235;SDS011;7202;50.718;7.072;2023-12-07T05:38:10;14.75;;;10.02;;
14235;SDS011;7202;50.718;7.072;2023-12-07T05:40:38;15.30;;;10.07;;
14235;SDS011;7202;50.718;7.072;2023-12-07T05:43:07;16.00;;;11.18;;
14235;SDS011;7202;50.718;7.072;2023-12-07T05:45:36;19.00;;;11.27;;
14235;SDS011;7202;50.718;7.072;2023-12-07T05:48:04;14.25;;;9.82;;
14235;SDS011;7202;50.718;7.072;2023-12-07T05:50:34;16.45;;;10.77;;
14235;SDS011;7202;50.718;7.072;2023-12-07T05:53:06;14.18;;;9.70;;
14235;SDS011;7202;50.718;7.072;2023-12-07T05:55:36;12.90;;;9.38;;
14235;SDS011;7202;50.718;7.072;2023-12-07T05:58:04;19.60;;;10.75;;
14235;SDS011;7202;50.718;7.072;2023-12-07T06:00:33;17.85;;;10.05;;
14235;SDS011;7202;50.718;7.072;2023-12-07T06:03:01;17.95;;;11.40;;
14235;SDS011;7202;50.718;7.072;2023-12-07T06:05:30;16.13;;;10.65;;
14235;SDS011;7202;50.718;7.072;2023-12-07T06:08:01;13.50;;;10.15;;
14235;SDS011;7202;50.718;7.072;2023-12-07T06:10:30;14.77;;;10.35;;
14235;SDS011;7202;50.718;7.072;2023-12-07T06:12:58;17.38;;;10.73;;
14235;SDS011;7202;50.718;7.072;2023-12-07T06:15:27;16.08;;;11.27;;
14235;SDS011;7202;50.718;7.072;2023-12-07T06:17:58;19.55;;;11.23;;
14235;SDS011;7202;50.718;7.072;2023-12-07T06:20:27;19.05;;;12.18;;
14235;SDS011;7202;50.718;7.072;2023-12-07T06:22:55;18.90;;;12.05;;
14235;SDS011;7202;50.718;7.072;2023-12-07T06:25:26;20.70;;;12.70;;
14235;SDS011;7202;50.718;7.072;2023-12-07T06:27:54;17.50;;;12.00;;
14235;SDS011;7202;50.718;7.072;2023-12-07T06:30:23;17.25;;;11.27;;
14235;SDS011;7202;50.718;7.072;2023-12-07T06:32:52;19.10;;;12.13;;
14235;SDS011;7202;50.718;7.072;2023-12-07T06:35:21;17.92;;;12.63;;
14235;SDS011;7202;50.718;7.072;2023-12-07T06:37:50;16.08;;;11.32;;
14235;SDS011;7202;50.718;7.072;2023-12-07T06:40:18;15.70;;;10.90;;
14235;SDS011;7202;50.718;7.072;2023-12-07T06:42:48;18.38;;;12.00;;
14235;SDS011;7202;50.718;7.072;2023-12-07T06:45:17;19.63;;;12.38;;
14235;SDS011;7202;50.718;7.072;2023-12-07T06:47:46;19.45;;;12.00;;
14235;SDS011;7202;50.718;7.072;2023-12-07T06:50:14;17.25;;;11.50;;
14235;SDS011;7202;50.718;7.072;2023-12-07T06:52:43;19.73;;;12.57;;
14235;SDS011;7202;50.718;7.072;2023-12-07T06:55:12;17.67;;;11.63;;
14235;SDS011;7202;50.718;7.072;2023-12-07T06:57:42;16.33;;;11.00;;
14235;SDS011;7202;50.718;7.072;2023-12-07T07:00:12;16.98;;;11.77;;
14235;SDS011;7202;50.718;7.072;2023-12-07T07:02:41;18.42;;;12.98;;
14235;SDS011;7202;50.718;7.072;2023-12-07T07:05:10;20.90;;;12.15;;
14235;SDS011;7202;50.718;7.072;2023-12-07T07:07:39;20.88;;;12.48;;
14235;SDS011;7202;50.718;7.072;2023-12-07T07:10:08;16.55;;;11.20;;
14235;SDS011;7202;50.718;7.072;2023-12-07T07:12:39;24.10;;;12.30;;
14235;SDS011;7202;50.718;7.072;2023-12-07T07:15:08;18.63;;;11.18;;
14235;SDS011;7202;50.718;7.072;2023-12-07T07:17:38;15.85;;;11.45;;
14235;SDS011;7202;50.718;7.072;2023-12-07T07:20:08;17.20;;;11.57;;
14235;SDS011;7202;50.718;7.072;2023-12-07T07:22:37;18.85;;;11.40;;
14235;SDS011;7202;50.718;7.072;2023-12-07T07:25:05;20.02;;;12.98;;
14235;SDS011;7202;50.718;7.072;2023-12-07T07:27:34;19.35;;;11.93;;
14235;SDS011;7202;50.718;7.072;2023-12-07T07:30:03;16.85;;;11.65;;
14235;SDS011;7202;50.718;7.072;2023-12-07T07:32:34;18.42;;;11.13;;
14235;SDS011;7202;50.718;7.072;2023-12-07T07:35:05;16.27;;;11.68;;
14235;SDS011;7202;50.718;7.072;2023-12-07T07:37:34;16.15;;;11.38;;
14235;SDS011;7202;50.718;7.072;2023-12-07T07:40:02;19.17;;;11.27;;
14235;SDS011;7202;50.718;7.072;2023-12-07T07:42:33;17.45;;;11.43;;
14235;SDS011;7202;50.718;7.072;2023-12-07T07:45:02;19.25;;;10.73;;
14235;SDS011;7202;50.718;7.072;2023-12-07T07:47:32;17.80;;;11.70;;
14235;SDS011;7202;50.718;7.072;2023-12-07T07:50:00;19.83;;;11.93;;
14235;SDS011;7202;50.718;7.072;2023-12-07T07:52:34;16.00;;;11.38;;
14235;SDS011;7202;50.718;7.072;2023-12-07T07:55:03;18.23;;;12.10;;
14235;SDS011;7202;50.718;7.072;2023-12-07T07:57:32;21.20;;;12.10;;
14235;SDS011;7202;50.718;7.072;2023-12-07T08:00:01;16.98;;;11.43;;
14235;SDS011;7202;50.718;7.072;2023-12-07T08:02:31;16.25;;;10.35;;
14235;SDS011;7202;50.718;7.072;2023-12-07T08:05:00;17.92;;;11.90;;
14235;SDS011;7202;50.718;7.072;2023-12-07T08:07:28;17.05;;;11.20;;
14235;SDS011;7202;50.718;7.072;2023-12-07T08:09:58;17.25;;;11.65;;
14235;SDS011;7202;50.718;7.072;2023-12-07T08:12:27;18.73;;;11.80;;
14235;SDS011;7202;50.718;7.072;2023-12-07T08:14:55;15.95;;;10.73;;
14235;SDS011;7202;50.718;7.072;2023-12-07T08:17:24;15.80;;;11.27;;
14235;SDS011;7202;50.718;7.072;2023-12-07T08:19:54;15.93;;;10.93;;
14235;SDS011;7202;50.718;7.072;2023-12-07T08:22:22;16.30;;;10.48;;
14235;SDS011;7202;50.718;7.072;2023-12-07T08:24:51;18.30;;;11.00;;
14235;SDS011;7202;50.718;7.072;2023-12-07T08:27:36;17.33;;;10.75;;
14235;SDS011;7202;50.718;7.072;2023-12-07T08:30:05;16.02;;;10.93;;
14235;SDS011;7202;50.718;7.072;2023-12-07T08:32:36;16.15;;;11.05;;
14235;SDS011;7202;50.718;7.072;2023-12-07T08:35:06;17.60;;;11.85;;
14235;SDS011;7202;50.718;7.072;2023-12-07T08:37:36;16.02;;;11.35;;
14235;SDS011;7202;50.718;7.072;2023-12-07T08:40:06;19.67;;;12.00;;
14235;SDS011;7202;50.718;7.072;2023-12-07T08:42:39;18.90;;;11.60;;
14235;SDS011;7202;50.718;7.072;2023-12-07T08:45:08;18.67;;;11.57;;
14235;SDS011;7202;50.718;7.072;2023-12-07T08:47:37;14.15;;;10.30;;
14235;SDS011;7202;50.718;7.072;2023-12-07T08:50:06;20.92;;;12.13;;
14235;SDS011;7202;50.718;7.072;2023-12-07T08:52:36;16.27;;;11.48;;
14235;SDS011;7202;50.718;7.072;2023-12-07T08:55:13;20.25;;;11.98;;
14235;SDS011;7202;50.718;7.072;2023-12-07T08:57:45;17.20;;;11.80;;
14235;SDS011;7202;50.718;7.072;2023-12-07T09:00:14;19.33;;;11.38;;
14235;SDS011;7202;50.718;7.072;2023-12-07T09:02:44;16.20;;;10.82;;
14235;SDS011;7202;50.718;7.072;2023-12-07T09:05:14;16.23;;;11.38;;
14235;SDS011;7202;50.718;7.072;2023-12-07T09:07:43;17.02;;;11.60;;
14235;SDS011;7202;50.718;7.072;2023-12-07T09:10:12;15.35;;;10.07;;
14235;SDS011;7202;50.718;7.072;2023-12-07T09:12:41;17.15;;;11.93;;
14235;SDS011;7202;50.718;7.072;2023-12-07T09:15:11;18.00;;;11.13;;
14235;SDS011;7202;50.718;7.072;2023-12-07T09:17:40;19.50;;;11.75;;
14235;SDS011;7202;50.718;7.072;2023-12-07T09:20:09;16.90;;;11.93;;
14235;SDS011;7202;50.718;7.072;2023-12-07T09:22:42;15.43;;;11.52;;
14235;SDS011;7202;50.718;7.072;2023-12-07T09:25:11;16.60;;;11.23;;
14235;SDS011;7202;50.718;7.072;2023-12-07T09:27:40;16.83;;;11.60;;
14235;SDS011;7202;50.718;7.072;2023-12-07T09:30:09;18.83;;;12.05;;
14235;SDS011;7202;50.718;7.072;2023-12-07T09:32:40;18.85;;;11.95;;
14235;SDS011;7202;50.718;7.072;2023-12-07T09:35:12;18.30;;;11.70;;
14235;SDS011;7202;50.718;7.072;2023-12-07T09:37:42;17.02;;;11.52;;
14235;SDS011;7202;50.718;7.072;2023-12-07T09:40:15;18.55;;;12.07;;
14235;SDS011;7202;50.718;7.072;2023-12-07T09:42:45;18.70;;;11.77;;
14235;SDS011;7202;50.718;7.072;2023-12-07T09:45:16;19.60;;;11.10;;
14235;SDS011;7202;50.718;7.072;2023-12-07T09:47:47;15.95;;;11.93;;
14235;SDS011;7202;50.718;7.072;2023-12-07T09:50:17;19.13;;;12.93;;
14235;SDS011;7202;50.718;7.072;2023-12-07T09:52:48;22.33;;;12.80;;
14235;SDS011;7202;50.718;7.072;2023-12-07T09:55:30;18.50;;;12.85;;
14235;SDS011;7202;50.718;7.072;2023-12-07T09:58:01;17.45;;;12.15;;
14235;SDS011;7202;50.718;7.072;2023-12-07T10:00:34;17.05;;;12.02;;
14235;SDS011;7202;50.718;7.072;2023-12-07T10:03:10;15.52;;;11.52;;
14235;SDS011;7202;50.718;7.072;2023-12-07T10:05:56;21.48;;;11.82;;
14235;SDS011;7202;50.718;7.072;2023-12-07T10:08:27;19.80;;;12.88;;
14235;SDS011;7202;50.718;7.072;2023-12-07T10:11:03;19.70;;;12.57;;
14235;SDS011;7202;50.718;7.072;2023-12-07T10:13:34;19.25;;;12.57;;
14235;SDS011;7202;50.718;7.072;2023-12-07T10:16:11;18.70;;;12.32;;
14235;SDS011;7202;50.718;7.072;2023-12-07T10:18:42;15.65;;;11.77;;
14235;SDS011;7202;50.718;7.072;2023-12-07T10:21:12;18.45;;;11.98;;
14235;SDS011;7202;50.718;7.072;2023-12-07T10:23:41;16.35;;;11.70;;
14235;SDS011;7202;50.718;7.072;2023-12-07T10:26:13;17.20;;;11.98;;
14235;SDS011;7202;50.718;7.072;2023-12-07T10:28:45;17.38;;;11.43;;
14235;SDS011;7202;50.718;7.072;2023-12-07T10:31:22;17.17;;;11.48;;
14235;SDS011;7202;50.718;7.072;2023-12-07T10:33:51;16.88;;;11.15;;
14235;SDS011;7202;50.718;7.072;2023-12-07T10:36:20;15.88;;;11.57;;
14235;SDS011;7202;50.718;7.072;2023-12-07T10:38:49;17.23;;;10.90;;
14235;SDS011;7202;50.718;7.072;2023-12-07T10:41:19;15.68;;;10.98;;
14235;SDS011;7202;50.718;7.072;2023-12-07T10:43:49;17.48;;;11.00;;
14235;SDS011;7202;50.718;7.072;2023-12-07T10:46:21;15.23;;;10.55;;
14235;SDS011;7202;50.718;7.072;2023-12-07T10:48:51;15.85;;;11.13;;
14235;SDS011;7202;50.718;7.072;2023-12-07T10:51:23;18.17;;;11.23;;
14235;SDS011;7202;50.718;7.072;2023-12-07T10:53:57;15.55;;;10.45;;
14235;SDS011;7202;50.718;7.072;2023-12-07T10:56:33;16.90;;;10.02;;
14235;SDS011;7202;50.718;7.072;2023-12-07T10:59:08;14.73;;;9.82;;
14235;SDS011;7202;50.718;7.072;2023-12-07T11:01:54;15.13;;;9.77;;
14235;SDS011;7202;50.718;7.072;2023-12-07T11:04:25;17.40;;;9.90;;
14235;SDS011;7202;50.718;7.072;2023-12-07T11:06:56;17.02;;;9.57;;
14235;SDS011;7202;50.718;7.072;2023-12-07T11:09:32;14.98;;;9.60;;
14235;SDS011;7202;50.718;7.072;2023-12-07T11:12:05;13.68;;;8.93;;
14235;SDS011;7202;50.718;7.072;2023-12-07T11:14:40;14.98;;;9.57;;
14235;SDS011;7202;50.718;7.072;2023-12-07T11:17:10;13.43;;;9.07;;
14235;SDS011;7202;50.718;7.072;2023-12-07T11:19:45;13.50;;;9.88;;
14235;SDS011;7202;50.718;7.072;2023-12-07T11:22:15;14.77;;;9.52;;
14235;SDS011;7202;50.718;7.072;2023-12-07T11:24:53;14.00;;;9.30;;
14235;SDS011;7202;50.718;7.072;2023-12-07T11:27:24;15.27;;;9.45;;
14235;SDS011;7202;50.718;7.072;2023-12-07T11:29:58;13.77;;;9.52;;
14235;SDS011;7202;50.718;7.072;2023-12-07T11:32:29;14.75;;;9.40;;
14235;SDS011;7202;50.718;7.072;2023-12-07T11:35:01;16.25;;;9.52;;
14235;SDS011;7202;50.718;7.072;2023-12-07T11:40:30;10.80;;;8.48;;
14235;SDS011;7202;50.718;7.072;2023-12-07T11:43:00;11.70;;;8.73;;
14235;SDS011;7202;50.718;7.072;2023-12-07T11:45:38;16.48;;;8.60;;
14235;SDS011;7202;50.718;7.072;2023-12-07T11:48:10;13.77;;;9.25;;
14235;SDS011;7202;50.718;7.072;2023-12-07T11:50:54;13.55;;;9.38;;
14235;SDS011;7202;50.718;7.072;2023-12-07T11:53:24;11.30;;;8.23;;
14235;SDS011;7202;50.718;7.072;2023-12-07T11:55:55;12.55;;;8.95;;
14235;SDS011;7202;50.718;7.072;2023-12-07T11:58:24;13.40;;;8.57;;
14235;SDS011;7202;50.718;7.072;2023-12-07T12:00:53;10.20;;;8.20;;
14235;SDS011;7202;50.718;7.072;2023-12-07T12:03:25;12.02;;;8.13;;
14235;SDS011;7202;50.718;7.072;2023-12-07T12:05:53;14.38;;;9.07;;
14235;SDS011;7202;50.718;7.072;2023-12-07T12:08:23;13.18;;;9.10;;
14235;SDS011;7202;50.718;7.072;2023-12-07T12:10:52;12.02;;;8.40;;
14235;SDS011;7202;50.718;7.072;2023-12-07T12:13:28;12.20;;;8.82;;
14235;SDS011;7202;50.718;7.072;2023-12-07T12:15:57;10.88;;;8.38;;
14235;SDS011;7202;50.718;7.072;2023-12-07T12:18:32;12.60;;;8.43;;
14235;SDS011;7202;50.718;7.072;2023-12-07T12:21:03;14.00;;;8.68;;
14235;SDS011;7202;50.718;7.072;2023-12-07T12:23:31;8.98;;;7.22;;
14235;SDS011;7202;50.718;7.072;2023-12-07T12:26:00;9.52;;;7.65;;
14235;SDS011;7202;50.718;7.072;2023-12-07T12:28:28;13.00;;;7.93;;
14235;SDS011;7202;50.718;7.072;2023-12-07T12:30:59;13.18;;;8.02;;
14235;SDS011;7202;50.718;7.072;2023-12-07T12:33:28;12.45;;;9.15;;
14235;SDS011;7202;50.718;7.072;2023-12-07T12:36:01;10.60;;;7.68;;
14235;SDS011;7202;50.718;7.072;2023-12-07T12:38:32;11.27;;;7.85;;
14235;SDS011;7202;50.718;7.072;2023-12-07T12:41:09;12.32;;;8.13;;
14235;SDS011;7202;50.718;7.072;2023-12-07T12:43:39;10.80;;;7.68;;
14235;SDS011;7202;50.718;7.072;2023-12-07T12:46:08;12.38;;;7.85;;
14235;SDS011;7202;50.718;7.072;2023-12-07T12:48:52;14.68;;;7.95;;
14235;SDS011;7202;50.718;7.072;2023-12-07T12:51:24;14.18;;;7.40;;
14235;SDS011;7202;50.718;7.072;2023-12-07T12:53:55;13.40;;;7.95;;
14235;SDS011;7202;50.718;7.072;2023-12-07T12:56:26;9.65;;;6.95;;
14235;SDS011;7202;50.718;7.072;2023-12-07T12:58:55;11.80;;;7.68;;
14235;SDS011;7202;50.718;7.072;2023-12-07T13:01:31;11.00;;;7.38;;
14235;SDS011;7202;50.718;7.072;2023-12-07T13:04:00;10.95;;;7.18;;
14235;SDS011;7202;50.718;7.072;2023-12-07T13:06:30;10.48;;;7.43;;
14235;SDS011;7202;50.718;7.072;2023-12-07T13:08:59;13.48;;;8.30;;
14235;SDS011;7202;50.718;7.072;2023-12-07T13:11:27;12.70;;;7.47;;
14235;SDS011;7202;50.718;7.072;2023-12-07T13:13:56;12.18;;;7.78;;
14235;SDS011;7202;50.718;7.072;2023-12-07T13:16:24;11.82;;;7.93;;
14235;SDS011;7202;50.718;7.072;2023-12-07T13:18:53;13.95;;;8.45;;
14235;SDS011;7202;50.718;7.072;2023-12-07T13:21:22;9.52;;;6.97;;
14235;SDS011;7202;50.718;7.072;2023-12-07T13:23:52;9.63;;;7.50;;
14235;SDS011;7202;50.718;7.072;2023-12-07T13:26:21;12.02;;;7.95;;
14235;SDS011;7202;50.718;7.072;2023-12-07T13:28:50;10.73;;;7.30;;
14235;SDS011;7202;50.718;7.072;2023-12-07T13:31:19;9.55;;;7.22;;
14235;SDS011;7202;50.718;7.072;2023-12-07T13:33:49;11.23;;;7.32;;
14235;SDS011;7202;50.718;7.072;2023-12-07T13:36:23;13.15;;;8.80;;
14235;SDS011;7202;50.718;7.072;2023-12-07T13:38:55;11.95;;;7.72;;
14235;SDS011;7202;50.718;7.072;2023-12-07T13:41:24;11.80;;;7.63;;
14235;SDS011;7202;50.718;7.072;2023-12-07T13:43:52;15.23;;;8.90;;
14235;SDS011;7202;50.718;7.072;2023-12-07T13:46:21;11.10;;;8.68;;
14235;SDS011;7202;50.718;7.072;2023-12-07T13:48:50;14.20;;;9.35;;
14235;SDS011;7202;50.718;7.072;2023-12-07T13:51:19;13.27;;;8.82;;
14235;SDS011;7202;50.718;7.072;2023-12-07T13:53:48;12.43;;;8.55;;
14235;SDS011;7202;50.718;7.072;2023-12-07T13:56:27;15.60;;;9.02;;
14235;SDS011;7202;50.718;7.072;2023-12-07T13:58:56;15.95;;;9.25;;
14235;SDS011;7202;50.718;7.072;2023-12-07T14:01:24;11.82;;;8.30;;
14235;SDS011;7202;50.718;7.072;2023-12-07T14:03:53;12.30;;;8.20;;
14235;SDS011;7202;50.718;7.072;2023-12-07T14:06:23;12.90;;;8.15;;
14235;SDS011;7202;50.718;7.072;2023-12-07T14:08:55;12.98;;;8.35;;
14235;SDS011;7202;50.718;7.072;2023-12-07T14:11:24;13.07;;;9.30;;
14235;SDS011;7202;50.718;7.072;2023-12-07T14:13:54;15.25;;;9.02;;
14235;SDS011;7202;50.718;7.072;2023-12-07T14:16:22;10.10;;;8.13;;
14235;SDS011;7202;50.718;7.072;2023-12-07T14:19:11;15.85;;;9.20;;
14235;SDS011;7202;50.718;7.072;2023-12-07T14:21:46;13.18;;;8.07;;
14235;SDS011;7202;50.718;7.072;2023-12-07T14:24:22;14.40;;;8.57;;
14235;SDS011;7202;50.718;7.072;2023-12-07T14:26:52;12.85;;;7.90;;
14235;SDS011;7202;50.718;7.072;2023-12-07T14:29:23;11.77;;;8.43;;
14235;SDS011;7202;50.718;7.072;2023-12-07T14:31:54;13.70;;;8.52;;
14235;SDS011;7202;50.718;7.072;2023-12-07T14:34:23;15.05;;;9.02;;
14235;SDS011;7202;50.718;7.072;2023-12-07T14:37:02;13.50;;;8.35;;
14235;SDS011;7202;50.718;7.072;2023-12-07T14:39:32;12.02;;;8.35;;
14235;SDS011;7202;50.718;7.072;2023-12-07T14:42:01;14.52;;;8.35;;
14235;SDS011;7202;50.718;7.072;2023-12-07T14:44:32;11.45;;;8.20;;
14235;SDS011;7202;50.718;7.072;2023-12-07T14:47:02;11.00;;;7.75;;
14235;SDS011;7202;50.718;7.072;2023-12-07T14:49:30;13.93;;;8.38;;
14235;SDS011;7202;50.718;7.072;2023-12-07T14:51:59;15.75;;;9.30;;
14235;SDS011;7202;50.718;7.072;2023-12-07T14:54:27;14.18;;;9.20;;
14235;SDS011;7202;50.718;7.072;2023-12-07T14:56:57;12.77;;;9.23;;
14235;SDS011;7202;50.718;7.072;2023-12-07T14:59:27;14.75;;;9.48;;
14235;SDS011;7202;50.718;7.072;2023-12-07T15:01:58;15.10;;;8.82;;